Time;durP1;ratioP1;P1;durP2;ratioP2;P2;SDS_P1;SDS_P2;PMS_P1;PMS_P2;Temp;Humidity;BMP_temperature;BMP_pressure;BME280_temperature;BME280_humidity;BME280_pressure;Samples;Min_cycle;Max_cycle;Signal;HPM_P1;HPM_P2
2021/12/07 00:01:56;;;;;;;4.77;3.60;;;;;;;-1.06;92.57;94752.88;4979914;28;20175;-82
2021/12/07 00:04:22;;;;;;;4.30;3.07;;;;;;;-1.07;93.81;94758.88;4964452;28;20208;-83
2021/12/07 00:06:47;;;;;;;4.33;3.17;;;;;;;-1.04;93.46;94759.53;4964408;28;20270;-83
2021/12/07 00:09:15;;;;;;;3.50;3.20;;;;;;;-1.02;93.81;94762.78;4963744;28;20233;-83
2021/12/07 00:11:40;;;;;;;5.37;3.37;;;;;;;-1.00;94.21;94763.50;4963222;28;20187;-82
2021/12/07 00:14:12;;;;;;;4.37;3.20;;;;;;;-1.05;94.47;94759.63;4978828;28;20288;-83
2021/12/07 00:16:39;;;;;;;3.07;2.73;;;;;;;-1.06;94.77;94757.97;4979217;28;20617;-83
2021/12/07 00:19:05;;;;;;;3.73;3.07;;;;;;;-1.02;95.15;94761.97;4963356;28;20214;-81
2021/12/07 00:21:30;;;;;;;4.77;3.40;;;;;;;-1.07;95.16;94764.81;4978563;28;20193;-83
2021/12/07 00:23:55;;;;;;;3.77;3.23;;;;;;;-1.05;95.61;94742.63;4978738;28;20205;-83
2021/12/07 00:26:21;;;;;;;4.37;3.33;;;;;;;-1.03;95.68;94747.59;4979130;28;20640;-83
2021/12/07 00:28:48;;;;;;;5.57;3.80;;;;;;;-1.12;96.34;94754.09;4997042;28;20175;-83
2021/12/07 00:31:23;;;;;;;7.90;4.13;;;;;;;-1.17;96.85;94754.38;4978470;28;20204;-83
2021/12/07 00:34:07;;;;;;;6.83;4.30;;;;;;;-1.17;96.81;94745.91;4964095;28;20202;-81
2021/12/07 00:36:38;;;;;;;4.07;3.67;;;;;;;-1.21;97.25;94752.13;4965102;28;20183;-82
2021/12/07 00:39:06;;;;;;;5.60;3.90;;;;;;;-1.22;97.77;94756.41;4978484;28;20273;-82
2021/12/07 00:41:32;;;;;;;6.00;4.07;;;;;;;-1.20;97.53;94758.84;4977942;28;20335;-81
2021/12/07 00:43:58;;;;;;;5.83;4.20;;;;;;;-1.23;97.76;94748.88;4977607;28;20209;-81
2021/12/07 00:46:25;;;;;;;5.23;4.10;;;;;;;-1.23;98.27;94748.88;4978879;28;20548;-81
2021/12/07 00:48:52;;;;;;;5.77;4.20;;;;;;;-1.25;98.29;94736.19;4962660;28;20230;-81
2021/12/07 00:51:17;;;;;;;5.07;4.03;;;;;;;-1.13;97.47;94734.63;4977648;28;20204;-80
2021/12/07 00:53:42;;;;;;;5.30;3.93;;;;;;;-1.09;97.76;94730.97;4962884;28;20207;-83
2021/12/07 00:56:08;;;;;;;7.10;4.37;;;;;;;-1.15;97.44;94729.63;4962718;28;20186;-81
2021/12/07 00:58:33;;;;;;;4.73;3.23;;;;;;;-1.09;97.79;94741.16;4962469;28;20677;-81
2021/12/07 01:01:10;;;;;;;2.90;2.33;;;;;;;-1.04;98.45;94733.22;4962335;28;20183;-81
2021/12/07 01:03:35;;;;;;;3.53;2.53;;;;;;;-0.98;97.86;94730.28;4962094;28;20210;-82
2021/12/07 01:24:57;;;;;;;2.30;1.00;;;;;;;-0.23;97.42;94733.03;4979848;28;20202;-83
2021/12/07 01:27:23;;;;;;;1.57;1.17;;;;;;;-0.22;97.22;94738.03;4977946;28;20179;-83
2021/12/07 01:29:58;;;;;;;2.20;1.43;;;;;;;-0.25;97.51;94729.78;4959215;28;20190;-83
2021/12/07 01:32:56;;;;;;;3.33;1.20;;;;;;;-0.14;97.31;94732.41;4943285;28;20183;-83
2021/12/07 01:43:30;;;;;;;1.10;1.00;;;;;;;0.11;96.91;94747.72;4971904;28;20184;-83
2021/12/07 02:01:45;;;;;;;1.13;1.00;;;;;;;0.44;96.26;94771.84;4961600;28;20202;-82
2021/12/07 02:04:11;;;;;;;2.10;1.10;;;;;;;0.55;96.05;94775.31;4958393;28;20271;-83
2021/12/07 02:06:36;;;;;;;1.03;0.73;;;;;;;0.53;96.02;94777.16;4958135;28;20183;-82
2021/12/07 02:09:04;;;;;;;2.00;1.00;;;;;;;0.57;95.91;94773.47;4958660;28;20235;-82
2021/12/07 02:11:29;;;;;;;1.37;1.00;;;;;;;0.60;95.69;94772.44;4957538;28;20292;-81
2021/12/07 02:16:21;;;;;;;2.00;1.00;;;;;;;0.62;95.88;94769.75;4974520;28;20189;-83
2021/12/07 02:18:46;;;;;;;0.90;0.90;;;;;;;0.66;95.70;94774.56;4941799;28;20208;-83
2021/12/07 02:21:25;;;;;;;2.60;1.10;;;;;;;0.63;96.10;94779.91;4941600;28;20555;-84
2021/12/07 02:23:52;;;;;;;2.60;0.70;;;;;;;0.68;96.36;94789.78;4969225;28;20219;-82
2021/12/07 02:26:18;;;;;;;1.60;0.90;;;;;;;0.69;95.92;94788.88;4974199;28;20192;-82
2021/12/07 02:28:44;;;;;;;1.07;0.97;;;;;;;0.74;95.08;94786.81;4941944;28;20263;-82
2021/12/07 02:31:10;;;;;;;2.73;0.93;;;;;;;0.76;95.25;94795.19;4957299;28;20191;-82
2021/12/07 02:33:36;;;;;;;1.53;0.97;;;;;;;0.68;96.06;94795.72;4957185;28;20203;-82
2021/12/07 02:36:02;;;;;;;0.87;0.87;;;;;;;0.72;96.42;94797.16;4975244;28;20187;-81
2021/12/07 02:38:27;;;;;;;1.17;0.80;;;;;;;0.76;95.99;94790.06;4960695;28;20204;-82
2021/12/07 02:40:53;;;;;;;1.67;1.00;;;;;;;0.74;96.08;94797.84;4979017;28;20275;-81
2021/12/07 02:43:18;;;;;;;1.70;0.87;;;;;;;0.66;97.30;94797.56;4975320;28;20200;-82
2021/12/07 02:45:44;;;;;;;1.13;0.80;;;;;;;0.70;97.23;94801.53;4993507;28;20183;-82
2021/12/07 02:48:09;;;;;;;0.80;0.67;;;;;;;0.63;96.98;94813.13;4977259;28;20267;-81
2021/12/07 02:50:35;;;;;;;1.97;0.90;;;;;;;0.67;97.23;94806.06;4960751;28;20180;-82
2021/12/07 02:53:00;;;;;;;1.10;1.00;;;;;;;0.67;98.01;94806.88;4977068;28;20180;-82
2021/12/07 02:55:27;;;;;;;1.83;1.00;;;;;;;0.71;97.62;94804.94;4960509;28;20547;-84
2021/12/07 02:57:52;;;;;;;0.80;0.80;;;;;;;0.70;97.89;94811.75;4977317;28;20264;-84
2021/12/07 03:00:23;;;;;;;1.70;1.20;;;;;;;0.71;97.87;94815.97;4944935;28;20290;-84
2021/12/07 03:02:58;;;;;;;3.07;1.37;;;;;;;0.70;98.06;94809.19;4975577;28;20203;-84
2021/12/07 03:05:38;;;;;;;2.17;1.30;;;;;;;0.62;98.14;94816.59;4975654;28;20168;-84
2021/12/07 03:26:37;;;;;;;1.40;1.00;;;;;;;0.59;96.65;94821.91;4976910;28;20199;-84
2021/12/07 03:29:03;;;;;;;1.37;0.80;;;;;;;0.66;96.63;94820.56;4978346;28;20180;-84
2021/12/07 03:31:29;;;;;;;0.97;0.80;;;;;;;0.58;97.13;94827.94;4976285;28;20214;-84
2021/12/07 03:33:56;;;;;;;0.90;0.80;;;;;;;0.64;97.10;94829.28;4976707;28;20199;-84
2021/12/07 03:36:21;;;;;;;1.30;1.00;;;;;;;0.66;97.36;94833.34;4960295;28;20730;-84
2021/12/07 03:38:47;;;;;;;0.77;0.77;;;;;;;0.56;97.88;94843.38;4976643;28;20201;-84
2021/12/07 03:41:13;;;;;;;1.47;1.10;;;;;;;0.68;97.70;94831.50;4960007;28;20220;-84
2021/12/07 03:43:39;;;;;;;1.20;1.10;;;;;;;0.65;97.47;94826.59;4974843;28;20207;-84
2021/12/07 03:46:05;;;;;;;1.97;1.23;;;;;;;0.61;97.77;94825.16;4944945;28;20521;-84
2021/12/07 03:48:30;;;;;;;2.37;1.00;;;;;;;0.60;97.26;94841.41;4975347;28;20184;-84
2021/12/07 03:50:56;;;;;;;5.63;1.43;;;;;;;0.64;96.94;94829.28;4976437;28;20184;-84
2021/12/07 03:53:21;;;;;;;2.47;1.60;;;;;;;0.67;96.85;94834.16;4975586;28;20216;-84
2021/12/07 03:55:47;;;;;;;3.13;1.40;;;;;;;0.68;96.85;94838.34;4959708;28;20640;-84
2021/12/07 03:58:12;;;;;;;1.63;1.50;;;;;;;0.67;96.57;94840.09;4944078;28;20547;-84
2021/12/07 04:00:41;;;;;;;3.17;1.67;;;;;;;0.70;97.18;94844.97;4959515;28;20196;-83
2021/12/07 04:03:09;;;;;;;3.07;1.63;;;;;;;0.71;96.16;94853.50;4959552;28;20316;-84
2021/12/07 04:05:44;;;;;;;5.47;2.47;;;;;;;0.74;95.25;94851.53;4959900;28;20711;-84
2021/12/07 04:08:09;;;;;;;2.70;2.03;;;;;;;0.74;95.70;94851.53;4944552;28;20211;-84
2021/12/07 04:10:35;;;;;;;5.60;1.93;;;;;;;0.77;95.49;94861.53;4959695;28;20180;-84
2021/12/07 04:13:00;;;;;;;3.93;1.57;;;;;;;0.79;95.09;94869.09;4975257;28;20532;-84
2021/12/07 04:15:25;;;;;;;3.80;1.87;;;;;;;0.81;95.74;94873.19;4975869;28;20185;-84
2021/12/07 04:17:50;;;;;;;3.33;1.90;;;;;;;0.71;96.16;94879.03;4959447;28;20798;-83
2021/12/07 04:20:17;;;;;;;3.13;1.77;;;;;;;0.65;96.78;94862.38;4975608;28;20212;-84
2021/12/07 04:22:43;;;;;;;5.37;2.03;;;;;;;0.70;96.19;94862.88;4974930;28;20661;-83
2021/12/07 04:25:10;;;;;;;7.03;2.00;;;;;;;0.70;95.50;94867.97;4958845;28;20271;-84
2021/12/07 04:27:38;;;;;;;4.13;1.90;;;;;;;0.72;95.44;94878.94;4974942;28;20188;-83
2021/12/07 04:30:06;;;;;;;5.33;1.87;;;;;;;0.80;95.17;94912.47;4959583;28;20652;-83
2021/12/07 04:32:31;;;;;;;3.30;1.87;;;;;;;0.67;96.71;94903.97;4958561;28;20236;-83
2021/12/07 04:34:57;;;;;;;4.93;2.20;;;;;;;0.66;97.41;94910.00;4975096;28;20571;-83
2021/12/07 04:37:23;;;;;;;8.07;2.10;;;;;;;0.61;97.75;94901.00;4975065;28;20538;-83
2021/12/07 04:39:48;;;;;;;4.10;2.10;;;;;;;0.59;97.96;94902.84;4975193;28;20201;-83
2021/12/07 04:42:13;;;;;;;4.20;2.23;;;;;;;0.51;98.27;94916.13;4973042;28;20216;-84
2021/12/07 04:44:46;;;;;;;4.87;2.40;;;;;;;0.58;97.48;94899.47;4975165;28;20207;-83
2021/12/07 04:47:19;;;;;;;6.57;2.10;;;;;;;0.56;96.81;94903.88;4978497;28;20168;-84
2021/12/07 04:50:06;;;;;;;5.90;2.50;;;;;;;0.57;97.30;94900.41;4996934;28;20168;-83
2021/12/07 04:57:58;;;;;;;6.47;2.87;;;;;;;0.57;97.27;94905.50;4990612;28;20667;-84
2021/12/07 05:00:26;;;;;;;6.80;2.67;;;;;;;0.61;96.09;94906.13;4959629;28;20255;-84
2021/12/07 05:02:57;;;;;;;5.20;2.57;;;;;;;0.67;96.05;94921.84;4959714;28;20394;-83
2021/12/07 05:05:26;;;;;;;4.67;2.00;;;;;;;0.67;95.59;94937.19;4975270;28;20180;-84
2021/12/07 05:07:54;;;;;;;6.03;2.23;;;;;;;0.51;96.45;94918.69;4944450;28;20204;-83
2021/12/07 05:10:27;;;;;;;6.27;2.90;;;;;;;0.54;96.10;94926.16;4974648;28;20176;-83
2021/12/07 05:34:48;;;;;;;4.20;1.90;;;;;;;0.45;94.23;94952.31;4980526;28;20207;-84
2021/12/07 05:39:59;;;;;;;4.33;2.20;;;;;;;0.37;94.38;94970.69;4980843;28;20206;-83
2021/12/07 05:42:24;;;;;;;4.73;2.30;;;;;;;0.39;94.59;94973.97;4960866;28;20183;-83
2021/12/07 05:44:51;;;;;;;3.30;1.90;;;;;;;0.43;94.28;94974.56;4960917;28;20683;-83
2021/12/07 05:47:16;;;;;;;7.17;1.93;;;;;;;0.46;94.56;94976.94;4961017;28;20574;-81
2021/12/07 05:49:42;;;;;;;7.23;2.50;;;;;;;0.53;94.20;94980.72;4977538;28;20171;-81
2021/12/07 05:52:07;;;;;;;5.43;2.50;;;;;;;0.55;94.17;94984.81;4960075;28;20195;-82
2021/12/07 05:54:32;;;;;;;9.87;2.77;;;;;;;0.49;94.36;94985.22;4961340;28;20203;-82
2021/12/07 05:56:57;;;;;;;6.07;2.20;;;;;;;0.55;94.68;94986.56;4961040;28;20226;-83
2021/12/07 05:59:23;;;;;;;9.63;2.17;;;;;;;0.53;94.49;94984.13;4977044;28;20211;-83
2021/12/07 06:01:48;;;;;;;9.80;1.97;;;;;;;0.63;94.43;94994.53;4976389;28;20199;-83
2021/12/07 06:04:13;;;;;;;6.50;2.20;;;;;;;0.64;94.59;94995.34;4993059;28;20566;-83
2021/12/07 06:06:39;;;;;;;3.90;2.37;;;;;;;0.57;94.96;95010.28;4961165;28;20330;-82
2021/12/07 06:09:05;;;;;;;6.60;2.50;;;;;;;0.59;94.85;95000.75;4961373;28;20183;-83
2021/12/07 06:11:31;;;;;;;7.37;2.67;;;;;;;0.60;95.26;95016.91;4962163;28;20184;-81
2021/12/07 06:13:56;;;;;;;9.10;2.70;;;;;;;0.53;95.20;95012.22;4981296;28;20195;-82
2021/12/07 06:16:21;;;;;;;7.50;2.83;;;;;;;0.63;95.23;95006.50;4981089;28;20187;-82
2021/12/07 06:18:47;;;;;;;3.40;2.37;;;;;;;0.68;94.55;95007.81;4964689;28;20223;-82
2021/12/07 06:21:12;;;;;;;7.13;2.53;;;;;;;0.60;94.73;95010.06;4978904;28;20195;-84
2021/12/07 06:23:38;;;;;;;3.70;2.27;;;;;;;0.62;94.39;95008.25;4955383;28;20657;-86
2021/12/07 06:26:04;;;;;;;10.73;3.03;;;;;;;0.65;94.57;95013.16;4961612;28;20341;-83
2021/12/07 06:28:29;;;;;;;8.43;2.57;;;;;;;0.60;95.13;95002.38;4980809;28;20329;-83
2021/12/07 06:30:55;;;;;;;6.70;2.80;;;;;;;0.56;94.42;95008.63;4979856;28;20295;-84
2021/12/07 06:33:23;;;;;;;7.47;3.63;;;;;;;0.70;94.32;95023.88;4979734;28;20210;-83
2021/12/07 06:35:49;;;;;;;9.00;3.13;;;;;;;0.71;93.96;95017.84;4997238;28;20190;-84
2021/12/07 06:38:17;;;;;;;10.40;3.53;;;;;;;0.77;93.80;95025.09;4966501;28;20180;-83
2021/12/07 06:40:43;;;;;;;5.77;3.13;;;;;;;0.68;93.68;95030.81;4964737;28;20222;-82
2021/12/07 06:43:09;;;;;;;5.57;2.80;;;;;;;0.59;94.10;95031.41;4979762;28;20629;-83
2021/12/07 06:45:34;;;;;;;9.00;2.70;;;;;;;0.57;93.85;95028.97;4978314;28;20183;-83
2021/12/07 06:47:59;;;;;;;6.90;3.00;;;;;;;0.62;93.71;95035.50;4979530;28;20194;-82
2021/12/07 06:50:25;;;;;;;9.43;2.70;;;;;;;0.65;94.01;95027.66;4960789;28;20283;-83
2021/12/07 06:52:52;;;;;;;8.73;2.73;;;;;;;0.62;93.50;95041.47;4990143;28;20191;-83
2021/12/07 06:55:17;;;;;;;6.70;3.07;;;;;;;0.64;93.73;95043.91;4981673;28;20205;-82
2021/12/07 06:57:43;;;;;;;8.57;3.23;;;;;;;0.62;93.60;95048.28;4964366;28;20725;-82
2021/12/07 07:00:11;;;;;;;6.30;2.63;;;;;;;0.52;94.32;95065.94;4966368;28;20295;-82
2021/12/07 07:02:36;;;;;;;11.80;2.77;;;;;;;0.50;95.25;95065.22;4952023;28;20549;-82
2021/12/07 07:05:02;;;;;;;4.50;2.63;;;;;;;0.47;95.40;95068.00;4960593;28;20295;-82
2021/12/07 07:07:28;;;;;;;9.10;2.73;;;;;;;0.40;95.51;95071.84;4950169;28;20181;-82
2021/12/07 07:09:53;;;;;;;12.63;4.23;;;;;;;0.43;95.58;95077.56;4979439;28;20723;-83
2021/12/07 07:12:21;;;;;;;10.07;3.13;;;;;;;0.56;95.14;95082.72;4979069;28;20215;-82
2021/12/07 07:14:47;;;;;;;6.40;2.57;;;;;;;0.55;94.97;95083.66;4962190;28;20203;-83
2021/12/07 07:17:13;;;;;;;11.33;3.03;;;;;;;0.51;94.96;95080.47;4977517;28;20657;-84
2021/12/07 07:19:38;;;;;;;7.43;2.03;;;;;;;0.51;95.16;95094.97;4977417;28;20204;-83
2021/12/07 07:22:04;;;;;;;8.80;2.40;;;;;;;0.45;95.45;95097.94;4994221;28;20660;-83
2021/12/07 07:24:30;;;;;;;9.23;2.77;;;;;;;0.49;95.21;95102.75;4994707;28;20208;-82
2021/12/07 07:26:56;;;;;;;9.83;3.40;;;;;;;0.43;94.98;95104.84;4961534;28;20930;-84
2021/12/07 07:29:21;;;;;;;9.07;3.50;;;;;;;0.44;94.88;95117.56;4963052;28;20179;-84
2021/12/07 07:31:46;;;;;;;8.03;2.33;;;;;;;0.47;94.51;95114.78;4962311;28;20191;-83
2021/12/07 07:34:12;;;;;;;6.80;1.97;;;;;;;0.47;94.54;95129.31;4962319;28;20196;-83
2021/12/07 07:36:37;;;;;;;4.80;2.40;;;;;;;0.51;94.39;95130.75;4975166;28;20645;-84
2021/12/07 07:39:04;;;;;;;5.93;2.20;;;;;;;0.53;94.33;95121.22;4959682;28;20207;-84
2021/12/07 07:41:29;;;;;;;4.27;2.23;;;;;;;0.54;93.94;95123.72;4964069;28;20659;-84
2021/12/07 07:43:54;;;;;;;7.13;2.10;;;;;;;0.57;93.71;95131.19;4962020;28;20204;-85
2021/12/07 07:46:19;;;;;;;5.30;2.37;;;;;;;0.59;93.62;95133.63;4997296;28;20176;-85
2021/12/07 07:48:45;;;;;;;6.30;2.60;;;;;;;0.67;93.46;95133.97;4979347;28;20194;-86
2021/12/07 07:51:11;;;;;;;9.87;2.43;;;;;;;0.65;93.10;95140.91;4962588;28;20188;-85
2021/12/07 07:53:37;;;;;;;7.43;2.23;;;;;;;0.74;92.64;95142.88;4979326;28;20211;-84
2021/12/07 07:56:03;;;;;;;7.90;2.23;;;;;;;0.67;92.98;95141.63;4978120;28;20179;-84
2021/12/07 07:58:28;;;;;;;8.07;2.37;;;;;;;0.67;92.52;95146.75;4978425;28;20183;-85
2021/12/07 08:00:54;;;;;;;7.57;1.87;;;;;;;0.71;92.21;95142.28;4961818;28;20238;-85
2021/12/07 08:03:19;;;;;;;6.00;2.30;;;;;;;0.69;91.09;95141.53;4961020;28;20210;-84
2021/12/07 08:05:45;;;;;;;6.20;1.90;;;;;;;0.67;91.40;95156.97;4979434;28;20194;-84
2021/12/07 08:08:10;;;;;;;5.10;1.80;;;;;;;0.67;91.05;95163.81;4997711;28;20176;-81
2021/12/07 08:10:35;;;;;;;7.30;2.20;;;;;;;0.74;91.10;95157.41;4985394;28;20187;-80
2021/12/07 08:13:05;;;;;;;3.33;1.97;;;;;;;0.73;90.27;95161.69;4976781;28;20220;-84
2021/12/07 08:15:32;;;;;;;8.10;2.20;;;;;;;0.77;90.27;95155.47;4954803;28;20189;-83
2021/12/07 08:17:58;;;;;;;9.37;2.63;;;;;;;0.80;89.56;95168.06;4950443;28;20180;-83
2021/12/07 08:20:33;;;;;;;9.80;2.20;;;;;;;0.79;89.25;95161.28;4976021;28;20279;-85
2021/12/07 08:22:58;;;;;;;5.90;1.80;;;;;;;0.80;89.17;95162.94;4997344;28;20617;-84
2021/12/07 08:25:24;;;;;;;7.13;2.27;;;;;;;0.80;89.21;95162.13;4964833;28;20203;-83
2021/12/07 08:27:50;;;;;;;4.87;2.20;;;;;;;0.88;88.82;95165.00;4964886;28;20184;-84
2021/12/07 08:30:16;;;;;;;5.17;2.30;;;;;;;0.89;88.94;95170.94;4962832;28;20176;-82
2021/12/07 08:32:45;;;;;;;6.63;1.90;;;;;;;0.91;88.90;95172.47;4954097;28;20184;-84
2021/12/07 08:35:15;;;;;;;10.50;2.37;;;;;;;0.90;88.67;95170.84;4968016;28;20200;-84
2021/12/07 08:37:43;;;;;;;4.27;1.80;;;;;;;0.88;88.68;95170.09;4960090;28;20240;-87
2021/12/07 08:40:10;;;;;;;11.20;1.97;;;;;;;0.91;88.87;95161.44;4961499;28;20578;-82
2021/12/07 08:42:37;;;;;;;9.10;2.73;;;;;;;0.95;88.48;95168.78;4959380;28;20185;-83
2021/12/07 08:45:06;;;;;;;5.27;1.87;;;;;;;0.96;88.58;95175.53;4966355;28;20731;-83
2021/12/07 08:47:31;;;;;;;5.90;1.73;;;;;;;0.89;88.80;95170.94;4962738;28;20194;-83
2021/12/07 08:49:57;;;;;;;10.30;2.50;;;;;;;0.96;88.66;95172.16;4994440;28;20211;-84
2021/12/07 08:52:23;;;;;;;7.87;2.00;;;;;;;0.93;88.37;95172.38;4978608;28;20192;-83
2021/12/07 08:59:58;;;;;;;7.17;2.63;;;;;;;0.95;87.90;95170.53;4980919;28;20261;-82
2021/12/07 09:02:25;;;;;;;15.57;4.90;;;;;;;0.98;87.68;95185.69;4978063;28;20278;-84
2021/12/07 09:04:53;;;;;;;6.07;2.60;;;;;;;1.04;88.44;95183.53;4962594;28;20631;-83
2021/12/07 09:07:21;;;;;;;5.90;2.10;;;;;;;1.19;88.29;95178.38;4979177;28;20187;-82
2021/12/07 09:09:46;;;;;;;8.90;3.10;;;;;;;1.28;87.58;95183.69;4962494;28;20643;-83
2021/12/07 09:12:14;;;;;;;8.17;2.60;;;;;;;1.22;87.32;95189.19;4976862;28;20183;-85
2021/12/07 09:14:42;;;;;;;12.90;2.80;;;;;;;1.18;86.85;95180.09;4966134;28;20204;-86
2021/12/07 09:17:09;;;;;;;11.57;6.63;;;;;;;1.30;86.36;95191.28;4943054;28;20721;-82
2021/12/07 09:19:34;;;;;;;7.73;2.23;;;;;;;1.27;86.25;95197.41;4987166;28;20551;-84
2021/12/07 09:22:00;;;;;;;5.77;1.83;;;;;;;1.41;85.94;95197.34;4978684;28;20187;-84
2021/12/07 09:24:26;;;;;;;9.53;2.20;;;;;;;1.40;86.08;95193.13;4977564;28;20227;-83
2021/12/07 09:26:51;;;;;;;8.17;1.87;;;;;;;1.22;85.60;95193.50;4978333;28;20184;-83
2021/12/07 09:29:16;;;;;;;5.30;1.97;;;;;;;1.09;86.54;95193.50;4994803;28;20199;-84
2021/12/07 09:31:42;;;;;;;7.43;1.80;;;;;;;1.20;86.81;95205.59;4976201;28;20237;-81
2021/12/07 09:34:09;;;;;;;7.57;2.23;;;;;;;1.20;86.22;95198.72;4976390;28;20317;-82
2021/12/07 09:36:35;;;;;;;4.43;2.53;;;;;;;1.12;87.12;95195.84;4974784;28;20191;-82
2021/12/07 09:39:02;;;;;;;7.03;2.50;;;;;;;1.23;86.52;95207.94;4974362;28;20558;-83
2021/12/07 09:41:27;;;;;;;7.23;2.40;;;;;;;1.21;86.80;95207.22;4987996;28;20259;-82
2021/12/07 09:43:53;;;;;;;5.77;2.20;;;;;;;1.19;86.75;95204.75;4978011;28;20590;-81
2021/12/07 09:46:19;;;;;;;8.73;2.83;;;;;;;1.16;86.40;95199.84;4983895;28;20215;-83
2021/12/07 09:48:45;;;;;;;9.50;2.40;;;;;;;1.22;86.34;95206.28;4960128;28;20179;-83
2021/12/07 09:51:12;;;;;;;8.10;1.93;;;;;;;1.26;85.52;95210.31;4975397;28;20197;-81
2021/12/07 09:53:37;;;;;;;4.20;1.70;;;;;;;1.29;85.01;95190.44;4995412;28;20215;-84
2021/12/07 09:56:05;;;;;;;7.67;2.40;;;;;;;1.32;85.02;95195.34;4964961;28;20202;-84
2021/12/07 09:58:31;;;;;;;7.33;1.60;;;;;;;1.41;84.88;95193.94;4976177;28;20182;-83
2021/12/07 10:00:57;;;;;;;4.97;1.80;;;;;;;1.41;84.48;95189.66;4975790;28;20298;-83
2021/12/07 10:03:23;;;;;;;10.80;2.30;;;;;;;1.41;84.54;95188.81;4959652;28;20207;-82
2021/12/07 10:05:49;;;;;;;12.27;2.00;;;;;;;1.48;84.47;95187.50;4976662;28;20698;-85
2021/12/07 10:08:15;;;;;;;6.33;1.70;;;;;;;1.60;82.84;95191.00;4976134;28;20186;-84
2021/12/07 10:10:47;;;;;;;8.33;2.40;;;;;;;1.65;82.08;95182.09;4979549;28;20262;-84
2021/12/07 10:13:14;;;;;;;7.33;1.67;;;;;;;1.73;82.12;95188.44;4993811;28;20238;-84
2021/12/07 10:15:41;;;;;;;8.63;2.20;;;;;;;1.85;81.93;95185.84;4956906;28;20185;-85
2021/12/07 10:18:06;;;;;;;9.33;1.80;;;;;;;1.97;81.87;95179.91;4958136;28;20603;-84
2021/12/07 10:20:42;;;;;;;5.57;1.67;;;;;;;1.96;80.98;95175.72;4972978;28;20228;-84
2021/12/07 10:23:14;;;;;;;6.37;1.93;;;;;;;2.01;81.26;95161.78;4950811;28;20567;-85
2021/12/07 10:25:55;;;;;;;2.60;1.33;;;;;;;2.02;80.74;95164.22;4993017;28;20222;-83
2021/12/07 10:28:28;;;;;;;5.57;1.93;;;;;;;2.04;79.75;95153.91;4976955;28;20703;-85
2021/12/07 10:30:55;;;;;;;3.37;1.60;;;;;;;2.11;80.06;95152.53;4975857;28;20203;-83
2021/12/07 10:33:42;;;;;;;6.40;1.47;;;;;;;2.15;79.19;95159.09;4986612;28;20257;-83
2021/12/07 10:36:09;;;;;;;4.07;1.60;;;;;;;2.16;78.77;95165.84;4980008;28;20186;-84
2021/12/07 10:38:34;;;;;;;3.87;1.80;;;;;;;2.31;78.21;95164.78;4979079;28;20176;-84
2021/12/07 10:41:06;;;;;;;5.43;1.37;;;;;;;2.31;77.25;95161.41;4985149;28;20240;-85
2021/12/07 10:43:54;;;;;;;5.70;1.57;;;;;;;2.09;76.58;95157.75;4957072;28;20201;-84
2021/12/07 10:46:30;;;;;;;5.57;1.53;;;;;;;2.23;76.31;95160.19;4964742;28;20188;-84
2021/12/07 10:49:10;;;;;;;7.10;1.70;;;;;;;2.32;76.82;95156.19;4976252;28;20183;-83
2021/12/07 10:51:36;;;;;;;7.63;1.40;;;;;;;2.37;76.18;95146.41;4971671;28;20624;-84
2021/12/07 10:54:02;;;;;;;4.70;2.00;;;;;;;2.49;76.79;95145.56;4973135;28;20224;-84
2021/12/07 10:56:38;;;;;;;6.13;1.77;;;;;;;2.50;75.67;95149.75;4971590;28;20184;-85
2021/12/07 10:59:08;;;;;;;7.67;1.83;;;;;;;2.52;76.72;95145.34;4964131;28;20195;-84
2021/12/07 11:01:39;;;;;;;7.10;2.33;;;;;;;2.51;75.75;95141.16;4985359;28;20180;-84
2021/12/07 11:04:23;;;;;;;5.27;1.93;;;;;;;2.58;75.84;95140.72;4995817;28;20664;-84
2021/12/07 11:07:08;;;;;;;7.00;1.80;;;;;;;2.40;74.88;95133.41;4996846;28;20175;-83
2021/12/07 11:10:14;;;;;;;11.83;3.03;;;;;;;2.52;75.50;95136.84;4979333;28;20311;-84
2021/12/07 11:12:50;;;;;;;6.67;1.90;;;;;;;2.46;73.94;95132.94;4978118;28;20247;-83
2021/12/07 11:15:22;;;;;;;4.50;1.30;;;;;;;2.63;74.53;95133.50;4980231;28;20573;-84
2021/12/07 11:17:48;;;;;;;6.23;1.80;;;;;;;2.60;74.38;95138.84;4981802;28;20191;-82
2021/12/07 11:20:14;;;;;;;4.73;1.87;;;;;;;2.68;74.73;95137.38;4978813;28;20284;-83
2021/12/07 11:22:49;;;;;;;9.67;2.33;;;;;;;2.60;75.05;95138.84;4980600;28;20184;-85
2021/12/07 11:31:30;;;;;;;2.40;1.50;;;;;;;2.58;73.40;95140.72;4997103;28;20182;-84
2021/12/07 11:34:12;;;;;;;9.40;1.97;;;;;;;2.62;72.75;95132.69;4971049;28;20196;-85
2021/12/07 11:36:40;;;;;;;3.60;1.53;;;;;;;2.58;72.43;95135.59;4997134;28;20187;-85
2021/12/07 11:39:38;;;;;;;7.27;1.77;;;;;;;2.54;72.85;95125.53;4992743;28;20199;-84
2021/12/07 11:42:25;;;;;;;5.80;2.20;;;;;;;2.74;73.15;95120.72;4976966;28;20188;-86
2021/12/07 11:44:56;;;;;;;10.40;2.67;;;;;;;2.70;72.36;95109.88;4980685;28;20230;-84
2021/12/07 11:47:29;;;;;;;7.57;2.10;;;;;;;2.71;72.56;95110.69;4981101;28;20287;-85
2021/12/07 11:49:57;;;;;;;7.50;1.67;;;;;;;2.75;71.87;95101.88;4978835;28;20186;-83
2021/12/07 11:52:23;;;;;;;7.07;1.83;;;;;;;2.93;71.54;95084.31;4963156;28;20195;-82
2021/12/07 11:54:48;;;;;;;6.13;1.10;;;;;;;2.84;70.93;95081.50;4994596;28;20227;-84
2021/12/07 11:57:17;;;;;;;6.77;1.67;;;;;;;2.99;70.70;95087.25;4980208;28;20202;-84
2021/12/07 11:59:43;;;;;;;5.57;1.80;;;;;;;2.93;70.58;95084.31;4964160;28;20585;-84
2021/12/07 12:02:09;;;;;;;11.17;1.47;;;;;;;2.82;69.45;95087.66;4967900;28;20206;-84
2021/12/07 12:04:34;;;;;;;4.80;1.73;;;;;;;2.87;70.21;95082.19;4979532;28;20208;-83
2021/12/07 12:07:00;;;;;;;5.40;1.20;;;;;;;2.73;68.95;95080.63;4979252;28;20214;-82
2021/12/07 12:09:26;;;;;;;5.53;1.60;;;;;;;2.83;69.85;95071.38;4979110;28;20180;-82
2021/12/07 12:12:10;;;;;;;7.23;2.10;;;;;;;2.88;68.60;95076.97;4979005;28;20184;-83
2021/12/07 12:15:11;;;;;;;4.03;1.03;;;;;;;2.78;66.10;95061.44;4979348;28;20199;-84
2021/12/07 12:18:02;;;;;;;4.77;1.20;;;;;;;2.68;66.53;95065.59;4990560;28;20207;-83
2021/12/07 12:20:56;;;;;;;2.40;1.23;;;;;;;2.56;66.46;95056.22;4978942;28;20215;-84
2021/12/07 12:23:40;;;;;;;7.10;1.80;;;;;;;2.83;68.03;95040.59;4996248;28;20573;-86
2021/12/07 12:26:09;;;;;;;5.67;1.80;;;;;;;2.88;67.61;95035.09;4995847;28;20184;-85
2021/12/07 12:28:40;;;;;;;4.43;1.33;;;;;;;2.85;67.50;95028.47;4958444;28;20196;-84
2021/12/07 12:31:08;;;;;;;6.27;1.83;;;;;;;2.89;68.58;95029.84;4975567;28;20278;-86
2021/12/07 12:33:50;;;;;;;5.70;1.27;;;;;;;2.87;66.61;95028.34;4979056;28;20204;-86
2021/12/07 12:36:18;;;;;;;6.53;1.70;;;;;;;2.91;67.11;95025.44;4979143;28;20187;-85
2021/12/07 12:38:46;;;;;;;3.73;1.00;;;;;;;2.88;65.64;95024.84;4963533;28;20262;-84
2021/12/07 12:41:14;;;;;;;4.30;1.57;;;;;;;2.93;65.11;95022.78;4977452;28;20223;-85
2021/12/07 12:43:44;;;;;;;3.67;1.37;;;;;;;2.94;66.26;95027.78;4978338;28;20208;-84
2021/12/07 12:46:15;;;;;;;3.40;1.50;;;;;;;2.97;66.73;95016.47;4978132;28;20187;-85
2021/12/07 12:48:49;;;;;;;3.13;1.10;;;;;;;2.95;65.34;95018.34;4978021;28;20187;-84
2021/12/07 12:51:16;;;;;;;4.50;1.17;;;;;;;3.00;65.68;95013.66;4977544;28;20200;-85
2021/12/07 12:53:41;;;;;;;3.10;1.40;;;;;;;2.99;66.38;95022.28;4995532;28;20251;-84
2021/12/07 12:56:09;;;;;;;3.60;1.00;;;;;;;2.99;65.27;95022.28;4977245;28;20185;-84
2021/12/07 12:58:40;;;;;;;6.33;2.50;;;;;;;3.04;64.84;95015.91;4962542;28;20195;-84
2021/12/07 13:01:23;;;;;;;4.93;1.43;;;;;;;3.04;64.66;95015.09;4961001;28;20298;-86
2021/12/07 13:03:57;;;;;;;3.23;1.30;;;;;;;2.98;64.57;95010.41;4978131;28;20196;-86
2021/12/07 13:06:32;;;;;;;2.73;1.27;;;;;;;2.92;63.16;95016.81;4959614;28;20192;-85
2021/12/07 13:09:16;;;;;;;6.50;1.77;;;;;;;2.94;63.94;95014.97;4958060;28;20272;-85
2021/12/07 13:11:42;;;;;;;4.80;1.67;;;;;;;3.00;64.16;95004.22;4993822;28;20279;-84
2021/12/07 13:14:13;;;;;;;6.77;1.60;;;;;;;2.99;63.94;95002.59;4977245;28;20221;-84
2021/12/07 13:16:51;;;;;;;3.73;1.57;;;;;;;2.87;63.90;94998.38;4978341;28;20653;-83
2021/12/07 13:19:16;;;;;;;5.17;1.20;;;;;;;2.86;63.71;95001.88;4978850;28;20208;-84
2021/12/07 13:21:44;;;;;;;4.37;1.10;;;;;;;2.92;63.58;94996.31;4977290;28;20275;-83
2021/12/07 13:24:14;;;;;;;5.10;1.20;;;;;;;2.99;64.36;94992.34;4962028;28;20278;-82
2021/12/07 13:26:43;;;;;;;5.73;1.13;;;;;;;3.03;63.70;94990.38;4978441;28;20282;-83
2021/12/07 13:29:17;;;;;;;2.03;0.93;;;;;;;2.98;63.90;94990.69;4978374;28;20649;-83
2021/12/07 13:31:49;;;;;;;6.73;4.77;;;;;;;2.80;63.27;94994.63;4977238;28;20181;-83
2021/12/07 13:34:17;;;;;;;6.47;3.47;;;;;;;2.82;63.54;94985.91;4961154;28;20200;-85